createdAt,value
2018-03-21T00:01:50.622Z,2.17
2018-03-21T00:04:18.788Z,6.50
2018-03-21T00:06:47.169Z,6.00
2018-03-21T00:09:15.280Z,4.13
2018-03-21T00:11:43.452Z,3.27
2018-03-21T00:14:12.520Z,6.57
2018-03-21T00:16:40.206Z,3.27
2018-03-21T00:19:07.785Z,5.97
2018-03-21T00:21:35.347Z,3.97
2018-03-21T00:24:02.950Z,4.33
2018-03-21T00:26:31.820Z,3.93
2018-03-21T00:28:59.449Z,4.80
2018-03-21T00:31:27.318Z,4.53
2018-03-21T00:33:54.891Z,3.83
2018-03-21T00:36:23.218Z,4.33
2018-03-21T00:38:51.312Z,5.63
2018-03-21T00:41:21.150Z,4.33
2018-03-21T00:43:49.198Z,4.37
2018-03-21T00:46:17.560Z,5.90
2018-03-21T00:48:45.647Z,9.00
2018-03-21T00:51:15.681Z,5.27
2018-03-21T00:53:43.878Z,4.97
2018-03-21T00:56:12.040Z,4.70
2018-03-21T00:58:40.105Z,2.83
2018-03-21T01:01:08.074Z,5.17
2018-03-21T01:03:36.181Z,5.43
2018-03-21T01:06:04.224Z,2.33
2018-03-21T01:08:32.341Z,4.97
2018-03-21T01:11:00.516Z,3.53
2018-03-21T01:13:28.865Z,6.40
2018-03-21T01:15:56.846Z,4.77
2018-03-21T01:18:25.758Z,3.77
2018-03-21T01:20:54.794Z,3.90
2018-03-21T01:23:24.388Z,4.53
2018-03-21T01:25:53.792Z,4.33
2018-03-21T01:28:21.955Z,4.30
2018-03-21T01:30:50.047Z,4.00
2018-03-21T01:33:18.067Z,4.60
2018-03-21T01:35:46.508Z,3.87
2018-03-21T01:38:15.178Z,5.33
2018-03-21T01:40:44.188Z,4.97
2018-03-21T01:43:12.395Z,3.27
2018-03-21T01:45:42.467Z,4.13
2018-03-21T01:48:12.112Z,6.20
2018-03-21T01:50:41.389Z,5.53
2018-03-21T01:53:11.434Z,4.50
2018-03-21T01:55:40.449Z,2.97
2018-03-21T01:58:08.385Z,6.07
2018-03-21T02:00:37.133Z,4.87
2018-03-21T02:03:06.069Z,5.70
2018-03-21T02:05:34.279Z,4.60
2018-03-21T02:08:03.225Z,3.10
2018-03-21T02:10:32.176Z,5.60
2018-03-21T02:13:00.193Z,7.27
2018-03-21T02:15:29.203Z,4.90
2018-03-21T02:17:57.598Z,4.03
2018-03-21T02:20:25.425Z,8.30
2018-03-21T02:22:53.009Z,4.87
2018-03-21T02:25:21.926Z,5.77
2018-03-21T02:27:50.424Z,4.40
2018-03-21T02:30:21.076Z,5.10
2018-03-21T02:32:49.106Z,6.63
2018-03-21T02:35:16.751Z,4.80
2018-03-21T02:37:44.390Z,6.07
2018-03-21T02:40:11.999Z,4.07
2018-03-21T02:42:39.610Z,8.20
2018-03-21T02:45:07.205Z,4.73
2018-03-21T02:47:34.768Z,4.13
2018-03-21T02:50:03.085Z,4.43
2018-03-21T02:52:30.647Z,4.43
2018-03-21T02:54:58.217Z,3.67
2018-03-21T02:57:25.947Z,6.00
2018-03-21T02:59:53.544Z,3.90
2018-03-21T03:02:21.119Z,5.53
2018-03-21T03:04:49.659Z,4.23
2018-03-21T03:07:17.251Z,2.83
2018-03-21T03:09:44.821Z,2.93
2018-03-21T03:12:12.374Z,4.83
2018-03-21T03:14:39.959Z,4.57
2018-03-21T03:17:07.566Z,6.27
2018-03-21T03:19:35.895Z,6.23
2018-03-21T03:22:03.735Z,4.77
2018-03-21T03:24:32.074Z,2.80
2018-03-21T03:26:59.629Z,6.53
2018-03-21T03:29:27.184Z,6.93
2018-03-21T03:31:54.746Z,6.03
2018-03-21T03:34:23.092Z,5.93
2018-03-21T03:36:50.648Z,4.33
2018-03-21T03:39:18.206Z,4.53
2018-03-21T03:41:45.800Z,4.10
2018-03-21T03:44:13.375Z,5.13
2018-03-21T03:46:40.948Z,5.33
2018-03-21T03:49:08.509Z,4.07
2018-03-21T03:51:36.153Z,4.70
2018-03-21T03:54:03.735Z,3.90
2018-03-21T03:56:31.324Z,3.87
2018-03-21T03:58:58.910Z,3.60
2018-03-21T04:01:26.492Z,4.87
2018-03-21T04:03:54.614Z,4.40
2018-03-21T04:06:22.997Z,4.57
2018-03-21T04:08:51.352Z,4.53
2018-03-21T04:11:18.951Z,5.13
2018-03-21T04:13:47.658Z,2.37
2018-03-21T04:16:16.031Z,3.70
2018-03-21T04:18:43.587Z,5.60
2018-03-21T04:21:11.187Z,3.37
2018-03-21T04:23:39.186Z,4.60
2018-03-21T04:26:07.535Z,2.57
2018-03-21T04:28:35.086Z,3.33
2018-03-21T04:31:02.742Z,3.80
2018-03-21T04:33:30.355Z,4.17
2018-03-21T04:35:57.920Z,7.67
2018-03-21T04:38:25.495Z,2.77
2018-03-21T04:40:53.056Z,4.03
2018-03-21T04:43:20.636Z,3.47
2018-03-21T04:45:48.984Z,4.47
2018-03-21T04:48:17.119Z,4.37
2018-03-21T04:50:44.710Z,4.80
2018-03-21T04:53:12.279Z,7.37
2018-03-21T04:55:39.856Z,4.30
2018-03-21T04:58:07.440Z,4.47
2018-03-21T05:00:35.795Z,3.00
2018-03-21T05:03:03.376Z,3.43
2018-03-21T05:05:30.936Z,3.47
2018-03-21T05:07:58.511Z,4.70
2018-03-21T05:10:26.109Z,6.07
2018-03-21T05:12:54.550Z,7.10
2018-03-21T05:15:22.158Z,3.83
2018-03-21T05:17:49.738Z,3.10
2018-03-21T05:20:17.322Z,5.17
2018-03-21T05:22:46.254Z,5.30
2018-03-21T05:25:13.855Z,6.50
2018-03-21T05:27:41.444Z,15.80
2018-03-21T05:30:09.070Z,7.10
2018-03-21T05:32:36.655Z,6.33
2018-03-21T05:35:04.351Z,5.00
2018-03-21T05:37:31.987Z,5.00
2018-03-21T05:39:59.587Z,4.50
2018-03-21T05:42:27.164Z,4.83
2018-03-21T05:44:54.844Z,2.83
2018-03-21T05:47:22.498Z,2.93
2018-03-21T05:49:50.071Z,4.73
2018-03-21T05:52:17.729Z,3.23
2018-03-21T05:54:45.310Z,2.50
2018-03-21T05:57:12.926Z,3.20
2018-03-21T05:59:41.329Z,3.90
2018-03-21T06:02:08.921Z,4.10
2018-03-21T06:04:37.478Z,5.20
2018-03-21T06:07:05.052Z,3.97
2018-03-21T06:09:32.647Z,5.37
2018-03-21T06:12:00.225Z,3.30
2018-03-21T06:14:28.581Z,6.37
2018-03-21T06:16:56.130Z,5.17
2018-03-21T06:19:23.746Z,5.27
2018-03-21T06:21:51.350Z,2.40
2018-03-21T06:24:19.712Z,4.23
2018-03-21T06:26:47.445Z,5.07
2018-03-21T06:29:15.061Z,1.20
2018-03-21T06:31:43.426Z,4.13
2018-03-21T06:34:11.515Z,4.13
2018-03-21T06:36:39.112Z,2.83
2018-03-21T06:39:06.723Z,5.23
2018-03-21T06:41:34.324Z,4.80
2018-03-21T06:44:01.919Z,2.10
2018-03-21T06:46:29.483Z,4.23
2018-03-21T06:48:57.061Z,1.90
2018-03-21T06:51:24.643Z,3.10
2018-03-21T06:53:52.294Z,4.73
2018-03-21T06:56:19.878Z,3.53
2018-03-21T06:58:47.526Z,2.20
2018-03-21T07:01:15.587Z,2.47
2018-03-21T07:03:43.165Z,2.67
2018-03-21T07:06:10.748Z,2.27
2018-03-21T07:08:38.455Z,3.93
2018-03-21T07:11:06.064Z,3.53
2018-03-21T07:13:45.451Z,4.47
2018-03-21T07:16:24.891Z,5.93
2018-03-21T07:18:52.454Z,2.63
2018-03-21T07:21:20.020Z,4.17
2018-03-21T07:23:47.640Z,4.50
2018-03-21T07:26:15.229Z,3.50
2018-03-21T07:28:43.603Z,2.73
2018-03-21T07:31:11.218Z,3.43
2018-03-21T07:33:39.568Z,4.30
2018-03-21T07:36:07.134Z,3.90
2018-03-21T07:38:34.730Z,5.00
2018-03-21T07:41:02.322Z,5.80
2018-03-21T07:43:30.682Z,5.67
2018-03-21T07:45:58.352Z,5.17
2018-03-21T07:48:25.982Z,6.40
2018-03-21T07:50:53.594Z,8.83
2018-03-21T07:53:21.254Z,7.70
2018-03-21T07:55:48.843Z,5.30
2018-03-21T07:58:16.414Z,4.87
2018-03-21T08:00:43.983Z,4.00
2018-03-21T08:03:11.566Z,3.47
2018-03-21T08:05:39.342Z,5.83
2018-03-21T08:08:07.721Z,4.97
2018-03-21T08:10:36.087Z,4.20
2018-03-21T08:13:03.666Z,6.30
2018-03-21T08:15:31.320Z,3.80
2018-03-21T08:17:59.046Z,2.27
2018-03-21T08:20:26.640Z,3.93
2018-03-21T08:22:55.014Z,5.33
2018-03-21T08:25:22.584Z,4.23
2018-03-21T08:27:50.205Z,5.63
2018-03-21T08:30:17.815Z,3.83
2018-03-21T08:32:45.501Z,4.77
2018-03-21T08:35:13.064Z,4.10
2018-03-21T08:37:40.648Z,3.17
2018-03-21T08:40:08.233Z,5.33
2018-03-21T08:42:36.560Z,6.73
2018-03-21T08:45:04.138Z,4.73
2018-03-21T08:47:31.724Z,4.20
2018-03-21T08:49:59.317Z,4.57
2018-03-21T08:52:26.915Z,4.70
2018-03-21T08:54:55.255Z,7.40
2018-03-21T08:57:22.853Z,6.17
2018-03-21T08:59:50.576Z,3.23
2018-03-21T09:02:18.167Z,6.23
2018-03-21T09:04:45.825Z,5.17
2018-03-21T09:07:13.408Z,4.00
2018-03-21T09:09:41.041Z,3.77
2018-03-21T09:14:43.411Z,2.80
2018-03-21T09:17:11.021Z,2.47
2018-03-21T09:19:39.525Z,4.17
2018-03-21T09:22:07.844Z,2.30
2018-03-21T09:24:35.451Z,3.80
2018-03-21T09:27:03.091Z,2.63
2018-03-21T09:29:30.738Z,2.40
2018-03-21T09:31:59.148Z,3.53
2018-03-21T09:34:27.591Z,2.87
2018-03-21T09:36:55.193Z,4.00
2018-03-21T09:39:23.635Z,2.87
2018-03-21T09:41:51.267Z,2.73
2018-03-21T09:44:19.698Z,2.67
2018-03-21T09:46:47.365Z,3.73
2018-03-21T09:49:16.220Z,3.10
2018-03-21T09:51:43.884Z,5.07
2018-03-21T09:54:11.538Z,2.27
2018-03-21T09:56:40.005Z,2.33
2018-03-21T09:59:08.394Z,2.17
2018-03-21T10:01:36.807Z,1.30
2018-03-21T10:04:05.338Z,2.30
2018-03-21T10:06:32.974Z,2.53
2018-03-21T10:09:00.641Z,2.70
2018-03-21T10:11:28.246Z,2.83
2018-03-21T10:13:56.081Z,2.77
2018-03-21T10:16:24.474Z,3.13
2018-03-21T10:18:52.840Z,2.03
2018-03-21T10:21:21.279Z,5.60
2018-03-21T10:23:48.926Z,3.97
2018-03-21T10:26:16.944Z,2.87
2018-03-21T10:28:44.523Z,3.97
2018-03-21T10:31:12.095Z,4.00
2018-03-21T10:33:39.685Z,2.40
2018-03-21T10:36:07.275Z,3.70
2018-03-21T10:38:34.936Z,3.23
2018-03-21T10:41:02.517Z,3.20
2018-03-21T10:43:30.144Z,2.70
2018-03-21T10:45:58.768Z,3.57
2018-03-21T10:48:26.464Z,3.20
2018-03-21T10:50:54.142Z,3.23
2018-03-21T10:53:21.834Z,1.90
2018-03-21T10:55:49.435Z,3.70
2018-03-21T10:58:17.998Z,2.60
2018-03-21T11:00:46.376Z,3.43
2018-03-21T11:03:14.004Z,3.60
2018-03-21T11:05:42.392Z,3.13
2018-03-21T11:08:10.900Z,4.10
2018-03-21T11:10:39.500Z,1.93
2018-03-21T11:13:07.245Z,2.50
2018-03-21T11:15:34.949Z,2.57
2018-03-21T11:18:02.993Z,3.33
2018-03-21T11:20:31.344Z,3.17
2018-03-21T11:23:00.154Z,3.17
2018-03-21T11:25:30.305Z,2.70
2018-03-21T11:27:58.057Z,3.50
2018-03-21T11:30:25.839Z,2.37
2018-03-21T11:32:54.250Z,2.43
2018-03-21T11:35:22.867Z,3.83
2018-03-21T11:37:50.565Z,3.87
2018-03-21T11:40:18.219Z,3.20
2018-03-21T11:42:45.849Z,2.73
2018-03-21T11:45:13.451Z,2.43
2018-03-21T11:47:41.836Z,3.93
2018-03-21T11:50:10.199Z,4.93
2018-03-21T11:52:38.507Z,4.77
2018-03-21T11:55:06.189Z,3.37
2018-03-21T11:57:34.676Z,3.23
2018-03-21T12:00:03.090Z,2.67
2018-03-21T12:02:30.685Z,3.97
2018-03-21T12:05:37.417Z,3.40
2018-03-21T12:08:05.012Z,4.60
2018-03-21T12:10:33.401Z,3.07
2018-03-21T12:13:01.727Z,2.40
2018-03-21T12:15:29.294Z,2.90
2018-03-21T12:17:56.854Z,4.83
2018-03-21T12:20:24.501Z,4.10
2018-03-21T12:22:52.892Z,3.63
2018-03-21T12:25:21.266Z,4.50
2018-03-21T12:27:48.856Z,3.60
2018-03-21T12:30:16.421Z,4.57
2018-03-21T12:32:43.975Z,4.47
2018-03-21T12:35:11.546Z,3.97
2018-03-21T12:37:39.153Z,2.93
2018-03-21T12:40:08.012Z,4.90
2018-03-21T12:42:35.645Z,4.27
2018-03-21T12:45:03.328Z,5.67
2018-03-21T12:47:30.969Z,3.47
2018-03-21T12:49:59.323Z,3.37
2018-03-21T12:52:26.934Z,3.50
2018-03-21T12:54:54.551Z,4.13
2018-03-21T12:57:22.317Z,5.93
2018-03-21T12:59:49.947Z,4.50
2018-03-21T13:04:59.434Z,5.00
2018-03-21T13:07:29.695Z,5.53
2018-03-21T13:09:57.332Z,3.87
2018-03-21T13:12:25.082Z,2.97
2018-03-21T13:14:52.976Z,2.67
2018-03-21T13:17:20.627Z,3.97
2018-03-21T13:19:48.211Z,5.30
2018-03-21T13:22:17.240Z,3.37
2018-03-21T13:24:45.148Z,4.70
2018-03-21T13:27:14.855Z,3.07
2018-03-21T13:29:43.229Z,3.27
2018-03-21T13:32:11.166Z,4.73
2018-03-21T13:34:38.874Z,3.40
2018-03-21T13:37:10.967Z,3.80
2018-03-21T13:39:39.858Z,3.03
2018-03-21T13:42:10.004Z,4.10
2018-03-21T13:45:53.219Z,3.67
2018-03-21T13:48:20.799Z,3.10
2018-03-21T13:50:48.513Z,3.27
2018-03-21T13:53:16.983Z,3.20
2018-03-21T13:55:44.621Z,3.07
2018-03-21T13:58:13.327Z,3.50
2018-03-21T14:00:41.082Z,3.40
2018-03-21T14:03:13.138Z,4.33
2018-03-21T14:05:44.306Z,4.63
2018-03-21T14:08:12.000Z,2.80
2018-03-21T14:10:40.495Z,2.93
2018-03-21T14:13:08.275Z,4.20
2018-03-21T14:15:35.867Z,2.90
2018-03-21T14:18:03.439Z,4.03
2018-03-21T14:20:31.040Z,3.53
2018-03-21T14:22:59.448Z,4.10
2018-03-21T14:25:27.076Z,2.67
2018-03-21T14:27:57.052Z,2.87
2018-03-21T14:30:25.726Z,5.00
2018-03-21T14:32:53.310Z,4.47
2018-03-21T14:35:21.713Z,6.20
2018-03-21T14:37:50.097Z,5.50
2018-03-21T14:40:18.980Z,4.60
2018-03-21T14:42:47.412Z,5.87
2018-03-21T14:45:15.796Z,4.53
2018-03-21T14:47:44.167Z,6.07
2018-03-21T14:50:11.872Z,5.73
2018-03-21T14:52:40.314Z,8.60
2018-03-21T14:55:08.744Z,8.03
2018-03-21T14:57:39.146Z,8.13
2018-03-21T15:00:06.789Z,9.80
2018-03-21T15:02:34.428Z,9.83
2018-03-21T15:05:02.791Z,15.07
2018-03-21T15:07:30.407Z,17.30
2018-03-21T15:09:58.121Z,15.87
2018-03-21T15:12:25.764Z,13.77
2018-03-21T15:14:53.373Z,19.60
2018-03-21T15:17:20.995Z,15.23
2018-03-21T15:19:49.422Z,18.17
2018-03-21T15:22:17.066Z,16.17
2018-03-21T15:24:45.478Z,17.30
2018-03-21T15:27:13.976Z,19.33
2018-03-21T15:29:41.631Z,15.30
2018-03-21T15:32:09.317Z,18.83
2018-03-21T15:34:37.557Z,18.53
2018-03-21T15:37:05.168Z,19.10
2018-03-21T15:39:32.852Z,21.40
2018-03-21T15:42:00.501Z,20.63
2018-03-21T15:44:28.930Z,23.73
2018-03-21T15:49:23.496Z,26.30
2018-03-21T15:51:51.108Z,22.53
2018-03-21T15:54:18.839Z,23.87
2018-03-21T15:56:46.575Z,25.83
2018-03-21T15:59:14.268Z,24.50
2018-03-21T16:01:43.149Z,26.57
2018-03-21T16:04:11.557Z,23.60
2018-03-21T16:06:40.532Z,27.03
2018-03-21T16:09:09.312Z,28.97
2018-03-21T16:11:37.007Z,25.00
2018-03-21T16:14:05.419Z,26.33
2018-03-21T16:16:33.036Z,23.23
2018-03-21T16:19:00.705Z,22.53
2018-03-21T16:21:28.350Z,25.37
2018-03-21T16:25:40.692Z,21.33
2018-03-21T16:28:08.316Z,24.43
2018-03-21T16:30:36.883Z,24.43
2018-03-21T16:33:04.477Z,25.63
2018-03-21T16:35:33.699Z,25.53
2018-03-21T16:38:03.144Z,24.67
2018-03-21T16:40:30.840Z,24.87
2018-03-21T16:42:58.690Z,20.27
2018-03-21T16:45:26.396Z,22.20
2018-03-21T16:47:53.987Z,23.23
2018-03-21T16:50:21.723Z,20.50
2018-03-21T16:52:49.567Z,23.03
2018-03-21T16:55:17.397Z,18.57
2018-03-21T16:57:45.044Z,20.50
2018-03-21T17:00:12.769Z,19.60
2018-03-21T17:02:40.378Z,19.57
2018-03-21T17:05:08.030Z,21.00
2018-03-21T17:07:36.786Z,23.93
2018-03-21T17:10:05.609Z,21.33
2018-03-21T17:12:33.200Z,18.80
2018-03-21T17:15:00.798Z,19.03
2018-03-21T17:17:28.451Z,28.23
2018-03-21T17:19:56.820Z,20.03
2018-03-21T17:22:24.419Z,18.73
2018-03-21T17:24:52.776Z,20.27
2018-03-21T17:27:20.377Z,17.23
2018-03-21T17:29:48.950Z,19.00
2018-03-21T17:32:16.610Z,20.57
2018-03-21T17:34:44.205Z,17.57
2018-03-21T17:37:12.574Z,19.87
2018-03-21T17:39:40.216Z,21.23
2018-03-21T17:42:07.899Z,22.13
2018-03-21T17:44:35.510Z,19.97
2018-03-21T17:47:03.567Z,19.67
2018-03-21T17:49:31.843Z,20.60
2018-03-21T17:52:00.278Z,19.07
2018-03-21T17:54:27.928Z,17.63
2018-03-21T17:56:55.528Z,21.83
2018-03-21T17:59:23.125Z,19.13
2018-03-21T18:04:17.669Z,20.40
2018-03-21T18:06:45.267Z,16.43
2018-03-21T18:09:12.892Z,18.93
2018-03-21T18:11:41.276Z,21.47
2018-03-21T18:14:08.990Z,15.50
2018-03-21T18:16:36.579Z,20.10
2018-03-21T18:19:04.275Z,17.97
2018-03-21T18:21:33.550Z,19.03
2018-03-21T18:24:01.139Z,21.60
2018-03-21T18:26:28.779Z,20.57
2018-03-21T18:28:56.521Z,16.47
2018-03-21T18:31:24.137Z,17.80
2018-03-21T18:33:51.733Z,17.97
2018-03-21T18:36:20.928Z,19.70
2018-03-21T18:38:48.776Z,18.80
2018-03-21T18:41:17.189Z,19.97
2018-03-21T18:43:45.586Z,20.57
2018-03-21T18:46:13.220Z,18.97
2018-03-21T18:48:42.731Z,20.63
2018-03-21T18:51:10.302Z,17.60
2018-03-21T18:53:38.124Z,24.03
2018-03-21T18:56:06.064Z,17.67
2018-03-21T18:58:33.608Z,24.40
2018-03-21T19:01:01.465Z,21.27
2018-03-21T19:03:29.101Z,20.50
2018-03-21T19:05:57.487Z,19.70
2018-03-21T19:08:25.546Z,23.17
2018-03-21T19:10:53.162Z,19.97
2018-03-21T19:13:21.674Z,23.67
2018-03-21T19:15:49.468Z,20.03
2018-03-21T19:18:17.048Z,20.07
2018-03-21T19:20:46.765Z,21.20
2018-03-21T19:23:14.541Z,21.30
2018-03-21T19:25:42.224Z,22.23
2018-03-21T19:28:09.856Z,22.90
2018-03-21T19:30:38.379Z,20.77
2018-03-21T19:33:06.915Z,21.17
2018-03-21T19:35:34.524Z,22.73
2018-03-21T19:38:03.065Z,22.83
2018-03-21T19:40:30.785Z,22.33
2018-03-21T19:42:59.219Z,25.27
2018-03-21T19:45:26.845Z,24.03
2018-03-21T19:47:55.381Z,23.97
2018-03-21T19:50:23.069Z,19.83
2018-03-21T19:52:50.793Z,27.40
2018-03-21T19:55:21.374Z,22.30
2018-03-21T19:57:50.383Z,25.37
2018-03-21T20:00:18.603Z,24.20
2018-03-21T20:02:46.915Z,26.03
2018-03-21T20:05:16.023Z,22.90
2018-03-21T20:07:44.323Z,27.47
2018-03-21T20:10:12.064Z,23.67
2018-03-21T20:12:39.678Z,29.67
2018-03-21T20:15:07.728Z,27.37
2018-03-21T20:17:36.814Z,24.70
2018-03-21T20:20:05.564Z,22.87
2018-03-21T20:22:33.626Z,24.00
2018-03-21T20:25:01.749Z,28.33
2018-03-21T20:27:30.016Z,23.33
2018-03-21T20:29:58.208Z,26.40
2018-03-21T20:32:26.401Z,26.03
2018-03-21T20:34:54.459Z,23.73
2018-03-21T20:37:22.681Z,22.30
2018-03-21T20:39:50.787Z,22.93
2018-03-21T20:42:18.961Z,24.63
2018-03-21T20:44:47.577Z,23.07
2018-03-21T20:47:15.973Z,23.83
2018-03-21T20:49:44.972Z,23.67
2018-03-21T20:52:13.651Z,23.67
2018-03-21T20:54:42.164Z,25.53
2018-03-21T20:57:10.040Z,26.43
2018-03-21T20:59:39.960Z,25.60
2018-03-21T21:02:08.763Z,23.90
2018-03-21T21:04:37.609Z,24.13
2018-03-21T21:07:05.904Z,23.43
2018-03-21T21:09:34.333Z,24.10
2018-03-21T21:12:02.569Z,24.80
2018-03-21T21:14:30.738Z,27.13
2018-03-21T21:16:58.698Z,24.10
2018-03-21T21:19:26.285Z,22.67
2018-03-21T21:21:54.590Z,22.70
2018-03-21T21:24:22.870Z,24.37
2018-03-21T21:26:50.532Z,24.97
2018-03-21T21:29:19.365Z,26.97
2018-03-21T21:31:47.630Z,25.17
2018-03-21T21:34:16.457Z,29.03
2018-03-21T21:36:45.350Z,26.90
2018-03-21T21:39:13.544Z,25.80
2018-03-21T21:41:41.738Z,23.20
2018-03-21T21:44:09.856Z,24.07
2018-03-21T21:46:37.607Z,26.40
2018-03-21T21:49:06.713Z,30.17
2018-03-21T21:51:36.168Z,24.13
2018-03-21T21:54:03.863Z,25.17
2018-03-21T21:56:33.327Z,24.73
2018-03-21T21:59:00.961Z,24.93
2018-03-21T22:01:28.965Z,27.70
2018-03-21T22:03:57.148Z,29.07
2018-03-21T22:06:24.872Z,25.13
2018-03-21T22:08:53.079Z,25.80
2018-03-21T22:11:22.060Z,26.67
2018-03-21T22:13:49.783Z,24.43
2018-03-21T22:16:17.958Z,25.63
2018-03-21T22:18:46.385Z,25.50
2018-03-21T22:21:15.462Z,30.20
2018-03-21T22:23:43.741Z,34.50
2018-03-21T22:26:11.882Z,26.77
2018-03-21T22:28:40.853Z,26.40
2018-03-21T22:31:08.991Z,31.17
2018-03-21T22:33:37.412Z,27.27
2018-03-21T22:36:05.010Z,27.67
2018-03-21T22:38:32.827Z,28.20
2018-03-21T22:41:01.988Z,27.13
2018-03-21T22:43:29.623Z,25.73
2018-03-21T22:45:57.279Z,27.33
2018-03-21T22:48:24.919Z,28.70
2018-03-21T22:50:52.500Z,30.03
2018-03-21T22:53:20.111Z,27.33
2018-03-21T22:55:54.168Z,28.40
2018-03-21T22:58:22.941Z,32.23
2018-03-21T23:00:50.530Z,31.43
2018-03-21T23:03:18.911Z,29.80
2018-03-21T23:05:47.278Z,27.73
2018-03-21T23:08:14.924Z,26.87
2018-03-21T23:10:42.632Z,25.93
2018-03-21T23:13:10.293Z,29.23
2018-03-21T23:15:38.712Z,28.97
2018-03-21T23:18:06.324Z,28.90
2018-03-21T23:20:33.914Z,28.43
2018-03-21T23:23:02.271Z,29.90
2018-03-21T23:25:29.917Z,32.13
2018-03-21T23:27:57.967Z,28.63
2018-03-21T23:30:26.350Z,27.33
2018-03-21T23:32:54.714Z,34.17
2018-03-21T23:35:22.324Z,27.40
2018-03-21T23:37:50.776Z,31.70
2018-03-21T23:40:18.370Z,29.40
2018-03-21T23:42:46.753Z,31.63
2018-03-21T23:45:14.351Z,27.17
2018-03-21T23:47:42.760Z,35.03
2018-03-21T23:50:10.420Z,28.00
2018-03-21T23:52:38.610Z,29.63
2018-03-21T23:55:06.962Z,27.73
2018-03-21T23:57:34.621Z,30.87
